GCTS/TFS METAR and TAF weather

Enter ICAO airport designator
Station Type Date Time Source
GCTS METAR 2020/12/06 01:00 UTC NOAA

GCTS 060100Z 05010KT 9999 FEW040 SCT045 17/12 Q1020 NOSIG


Station Type Date Time Source
GCTS Decoded METAR 2020/12/06 01:00 UTC NOAA

Tenerife Sur, Spain (GCTS) 28-03N 016-34W 77M
Dec 05, 2020 - 08:00 PM EST / 2020.12.06 0100 UTC
Wind: from the NE (050 degrees) at 12 MPH (10 KT):0
Visibility: greater than 7 mile(s):0
Sky conditions: partly cloudy
Temperature: 62 F (17 C)
Dew Point: 53 F (12 C)
Relative Humidity: 72%
Pressure (altimeter): 30.12 in. Hg (1020 hPa)
ob: GCTS 060100Z 05010KT 9999 FEW040 SCT045 17/12 Q1020 NOSIG
cycle: 1

Station Type Date Time Source
GCTS TAF 2020/12/05 21:27 UTC NOAA

TAF GCTS 052000Z 0521/0621 06009KT 9999 BKN040 TX22/0614Z TN16/0607Z

Example: see airport list